Portada
METAR-TAF:

METAR-TAF

Aeropuertos :

Appleton Municipal Airport

Appleton, Minnesota, Estados Unidos

latitud: 45-13-39N, longitud: 096-00-15W, altitud: 310 m

Observación

El informe se hizo hace 36 minutos, a las 07:33 UTC
Viento calma
Temperatura 9°C
Humedad 53%
Presión 1025 hPa
Visibilidad: 16.1 km
Cielo despejado

METAR: KAQP 310733Z AUTO 00000KT 10SM CLR 09/00 A3026 RMK AO2

Hora: 03:09 (08:09 UTC)


TAF: falta

Observaciones y pronósticos meteorológicos de más de 4000 aeropuertos (mensajes METAR y TAF).

Los puntos amarillos y rojos representan las estaciones disponibles.

Ponga el ratón en el punto deseado para ver el nombre de la estación.

Haga clic para ver las observaciones y los pronósticos meteorológicos.

Para cambiar el mapa : haga clic en los botones verdes con una cruz de color negro para hacer un zoom, en el botón verde con un guión para alejar o en las flechas verdes para mapas adyacentes.


METAR-TAF: